Tinsdal — V2AJ2 — position and weather

sailwx.info

Track history (hours):
 
Tides and Currents Weather Stations Pressure Air Temp Water Temp Dewpoint Dewpoint Depression Visibility Wind Speed Wind Dir Waves Ship Positions

Tinsdal

Last reported at 2016-Jul-28 17:26 UTC. Time now 2016-Jul-29 19:49 UTC.
Position N 46°22' W 004°58'.

Length 90 m; draft 5.8 m.

Type: Cargo ship. MMSI: 305573000.

Date/timePositionNaut miles runAvg speedWind from/ knotsBaromVisibWave heightAir tempDewpointWater temp
2016-Jul-28 17:26N 46°22' W 004°58'4010.1
2016-Jul-28 13:27N 47°01' W 005°14'1310.5
2016-Jul-28 12:14N 47°13' W 005°20'1110.6
2016-Jul-28 11:11N 47°24' W 005°24'53 9.4
2016-Jul-28 05:33N 48°15' W 005°46'24 9.9
2016-Jul-28 03:05N 48°38' W 005°56'910.2
2016-Jul-28 02:13N 48°47' W 005°52'710.4
2016-Jul-28 01:32N 48°54' W 005°51'21 8.9
2016-Jul-27 23:14N 49°05' W 005°24'10 8.3
2016-Jul-27 22:05N 49°10' W 005°12'68 9.0
2016-Jul-27 14:33N 49°44' W 003°42'10 8.6
2016-Jul-27 13:26N 49°51' W 003°31'7 8.0
2016-Jul-27 12:33N 49°52' W 003°20'8 8.1
2016-Jul-27 11:33N 49°56' W 003°09'8 8.3
2016-Jul-27 10:33N 50°00' W 002°58'111 9.2
2016-Jul-26 22:31N 50°30' W 000°11'1010.0
2016-Jul-26 21:32N 50°33' E 000°04'57 9.1
2016-Jul-26 15:19N 51°01' E 001°21'6 8.6
2016-Jul-26 14:33N 51°05' E 001°30'1110.7
2016-Jul-26 13:34N 51°12' E 001°42'1212.1
2016-Jul-26 12:33N 51°23' E 001°52'1212.0
2016-Jul-26 11:33N 51°32' E 002°04'1311.1
2016-Jul-26 10:25N 51°42' E 002°17'28 9.4
2016-Jul-26 07:26N 52°01' E 002°50'8 8.6
2016-Jul-26 06:33N 52°03' E 003°01'9 8.8
2016-Jul-26 05:31N 52°04' E 003°16'9 8.8
2016-Jul-26 04:33N 52°04' E 003°30'9 9.4
2016-Jul-26 03:33N 52°04' E 003°45'9 9.5
2016-Jul-26 02:33N 52°01' E 003°60'1110.7
2016-Jul-26 01:33N 51°55' E 004°14'9 9.2
2016-Jul-26 00:33N 51°50' E 004°27'9 8.5
2016-Jul-25 23:33N 51°45' E 004°38'4 0.1
2016-Jul-24 02:05N 51°41' E 004°36'1 1.5
2016-Jul-24 01:34N 51°42' E 004°35'7 6.6
2016-Jul-24 00:33N 51°48' E 004°35'8 7.6
2016-Jul-23 23:33N 51°51' E 004°23'2 2.4
2016-Jul-23 22:33N 51°52' E 004°20'3 2.8
2016-Jul-23 21:33N 51°54' E 004°17'7 6.9
2016-Jul-23 20:33N 51°58' E 004°08'9 8.8
2016-Jul-23 19:33N 52°02' E 003°55'4210.2
2016-Jul-23 15:29N 51°48' E 002°52'1010.9
2016-Jul-23 14:33N 51°44' E 002°37'1111.4
2016-Jul-23 13:33N 51°35' E 002°25'1110.6
2016-Jul-23 12:33N 51°27' E 002°14'9 9.0
2016-Jul-23 11:33N 51°22' E 002°02'9 9.3
2016-Jul-23 10:33N 51°24' E 001°47'9 8.9
2016-Jul-23 09:33N 51°24' E 001°33'1110.7
2016-Jul-23 08:32N 51°29' E 001°18'1111.5
2016-Jul-23 07:33N 51°29' E 000°60'1312.8
2016-Jul-23 06:33N 51°30' E 000°39'11 5.7
2016-Jul-23 04:34N 51°28' E 000°21'0 0.0
2016-Jul-23 03:33N 51°28' E 000°21'0 0.0
2016-Jul-23 02:33N 51°28' E 000°21'0 0.0
2016-Jul-23 01:33N 51°28' E 000°21'0 0.0
2016-Jul-23 00:33N 51°28' E 000°21'0 0.0
2016-Jul-22 23:33N 51°28' E 000°21'0 0.0
2016-Jul-22 22:34N 51°28' E 000°21'0 0.0
2016-Jul-22 21:34N 51°28' E 000°21'0 0.0
2016-Jul-22 20:33N 51°28' E 000°21'0 0.0
2016-Jul-22 19:33N 51°28' E 000°21'0 0.0
2016-Jul-22 18:34N 51°28' E 000°21'0 0.0
2016-Jul-22 17:34N 51°28' E 000°21'0 0.0
2016-Jul-22 16:33N 51°28' E 000°21'0 0.0
2016-Jul-22 15:34N 51°28' E 000°21'0 0.0
2016-Jul-22 14:33N 51°28' E 000°21'0 0.0
2016-Jul-22 13:33N 51°28' E 000°21'0 0.0
2016-Jul-22 12:33N 51°28' E 000°21'0 0.0
2016-Jul-22 11:33N 51°28' E 000°21'0 0.0
2016-Jul-22 10:33N 51°28' E 000°21'0 0.0
2016-Jul-22 09:33N 51°28' E 000°21'0 0.0
2016-Jul-22 08:33N 51°28' E 000°21'0 0.0
2016-Jul-22 07:34N 51°28' E 000°21'0 0.0
2016-Jul-22 05:33N 51°28' E 000°21'0 0.0
2016-Jul-22 04:33N 51°28' E 000°21'0 0.0
2016-Jul-22 03:34N 51°28' E 000°21'0 0.0
2016-Jul-22 02:33N 51°28' E 000°21'1 0.7
2016-Jul-22 01:33N 51°27' E 000°20'2 1.8
2016-Jul-22 00:34N 51°27' E 000°23'9 9.3
2016-Jul-21 23:33N 51°30' E 000°37'1110.5
2016-Jul-21 22:33N 51°29' E 000°54'10 9.8
2016-Jul-21 21:33N 51°29' E 001°09'1010.3
2016-Jul-21 20:33N 51°28' E 001°26'3 2.7
2016-Jul-21 19:33N 51°25' E 001°26'1 1.1
2016-Jul-21 18:33N 51°25' E 001°24'0 0.0
2016-Jul-21 17:33N 51°25' E 001°24'0 0.0
2016-Jul-21 16:33N 51°25' E 001°24'0 0.0
2016-Jul-21 15:33N 51°25' E 001°24'0 0.0
2016-Jul-21 14:33N 51°25' E 001°24'0 0.1
2016-Jul-21 13:33N 51°25' E 001°24'0 0.0
2016-Jul-21 12:33N 51°25' E 001°24'0 0.0
2016-Jul-21 11:34N 51°25' E 001°24'0 0.0
2016-Jul-21 10:33N 51°25' E 001°24'0 0.0
2016-Jul-21 09:33N 51°25' E 001°24'1 0.8
2016-Jul-21 08:33N 51°25' E 001°26'10 9.8
2016-Jul-21 07:33N 51°32' E 001°37'9 9.3
2016-Jul-21 06:33N 51°40' E 001°44'9 9.1
2016-Jul-21 05:33N 51°49' E 001°43'8 7.7
2016-Jul-21 04:33N 51°57' E 001°44'7 7.0
2016-Jul-21 03:33N 52°04' E 001°45'7 6.7
2016-Jul-21 02:33N 52°10' E 001°49'21 0.5
2016-Jul-19 08:19N 52°31' E 001°51'5 6.1
2016-Jul-19 07:27N 52°27' E 001°56'15 5.1
2016-Jul-19 04:32N 52°17' E 002°14'5 5.3
2016-Jul-19 03:33N 52°13' E 002°19'9 9.3
2016-Jul-19 02:32N 52°06' E 002°30'11 9.5
2016-Jul-19 01:21N 51°59' E 002°45'7 8.9
2016-Jul-19 00:33N 51°53' E 002°51'9 8.6
2016-Jul-18 23:32N 51°49' E 003°03'9 8.6
2016-Jul-18 22:33N 51°44' E 003°15'9 9.0
2016-Jul-18 21:33N 51°37' E 003°22'10 9.4
2016-Jul-18 20:32N 51°29' E 003°30'9 8.9
2016-Jul-18 19:33N 51°24' E 003°42'10 9.6
2016-Jul-18 18:33N 51°24' E 003°57'9 8.6
2016-Jul-18 17:34N 51°24' E 004°11'  
Track history (hours):
 
Tides and Currents Weather Stations Pressure Air Temp Water Temp Dewpoint Dewpoint Depression Visibility Wind Speed Wind Dir Waves Ship Positions

Tinsdal

Last reported at 2016-Jul-28 17:26 UTC. Time now 2016-Jul-29 19:49 UTC.
Position N 46°22' W 004°58'.

Length 90 m; draft 5.8 m.

Type: Cargo ship. MMSI: 305573000.

Date/timePositionNaut miles runAvg speedWind from/ knotsBaromVisibWave heightAir tempDewpointWater temp
2016-Jul-28 17:26N 46°22' W 004°58'4010.1
2016-Jul-28 13:27N 47°01' W 005°14'1310.5
2016-Jul-28 12:14N 47°13' W 005°20'1110.6
2016-Jul-28 11:11N 47°24' W 005°24'53 9.4
2016-Jul-28 05:33N 48°15' W 005°46'24 9.9
2016-Jul-28 03:05N 48°38' W 005°56'910.2
2016-Jul-28 02:13N 48°47' W 005°52'710.4
2016-Jul-28 01:32N 48°54' W 005°51'21 8.9
2016-Jul-27 23:14N 49°05' W 005°24'10 8.3
2016-Jul-27 22:05N 49°10' W 005°12'68 9.0
2016-Jul-27 14:33N 49°44' W 003°42'10 8.6
2016-Jul-27 13:26N 49°51' W 003°31'7 8.0
2016-Jul-27 12:33N 49°52' W 003°20'8 8.1
2016-Jul-27 11:33N 49°56' W 003°09'8 8.3
2016-Jul-27 10:33N 50°00' W 002°58'111 9.2
2016-Jul-26 22:31N 50°30' W 000°11'1010.0
2016-Jul-26 21:32N 50°33' E 000°04'57 9.1
2016-Jul-26 15:19N 51°01' E 001°21'6 8.6
2016-Jul-26 14:33N 51°05' E 001°30'1110.7
2016-Jul-26 13:34N 51°12' E 001°42'1212.1
2016-Jul-26 12:33N 51°23' E 001°52'1212.0
2016-Jul-26 11:33N 51°32' E 002°04'1311.1
2016-Jul-26 10:25N 51°42' E 002°17'28 9.4
2016-Jul-26 07:26N 52°01' E 002°50'8 8.6
2016-Jul-26 06:33N 52°03' E 003°01'9 8.8
2016-Jul-26 05:31N 52°04' E 003°16'9 8.8
2016-Jul-26 04:33N 52°04' E 003°30'9 9.4
2016-Jul-26 03:33N 52°04' E 003°45'9 9.5
2016-Jul-26 02:33N 52°01' E 003°60'1110.7
2016-Jul-26 01:33N 51°55' E 004°14'9 9.2
2016-Jul-26 00:33N 51°50' E 004°27'9 8.5
2016-Jul-25 23:33N 51°45' E 004°38'4 0.1
2016-Jul-24 02:05N 51°41' E 004°36'1 1.5
2016-Jul-24 01:34N 51°42' E 004°35'7 6.6
2016-Jul-24 00:33N 51°48' E 004°35'8 7.6
2016-Jul-23 23:33N 51°51' E 004°23'2 2.4
2016-Jul-23 22:33N 51°52' E 004°20'3 2.8
2016-Jul-23 21:33N 51°54' E 004°17'7 6.9
2016-Jul-23 20:33N 51°58' E 004°08'9 8.8
2016-Jul-23 19:33N 52°02' E 003°55'4210.2
2016-Jul-23 15:29N 51°48' E 002°52'1010.9
2016-Jul-23 14:33N 51°44' E 002°37'1111.4
2016-Jul-23 13:33N 51°35' E 002°25'1110.6
2016-Jul-23 12:33N 51°27' E 002°14'9 9.0
2016-Jul-23 11:33N 51°22' E 002°02'9 9.3
2016-Jul-23 10:33N 51°24' E 001°47'9 8.9
2016-Jul-23 09:33N 51°24' E 001°33'1110.7
2016-Jul-23 08:32N 51°29' E 001°18'1111.5
2016-Jul-23 07:33N 51°29' E 000°60'1312.8
2016-Jul-23 06:33N 51°30' E 000°39'11 5.7
2016-Jul-23 04:34N 51°28' E 000°21'0 0.0
2016-Jul-23 03:33N 51°28' E 000°21'0 0.0
2016-Jul-23 02:33N 51°28' E 000°21'0 0.0
2016-Jul-23 01:33N 51°28' E 000°21'0 0.0
2016-Jul-23 00:33N 51°28' E 000°21'0 0.0
2016-Jul-22 23:33N 51°28' E 000°21'0 0.0
2016-Jul-22 22:34N 51°28' E 000°21'0 0.0
2016-Jul-22 21:34N 51°28' E 000°21'0 0.0
2016-Jul-22 20:33N 51°28' E 000°21'0 0.0
2016-Jul-22 19:33N 51°28' E 000°21'0 0.0
2016-Jul-22 18:34N 51°28' E 000°21'0 0.0
2016-Jul-22 17:34N 51°28' E 000°21'0 0.0
2016-Jul-22 16:33N 51°28' E 000°21'0 0.0
2016-Jul-22 15:34N 51°28' E 000°21'0 0.0
2016-Jul-22 14:33N 51°28' E 000°21'0 0.0
2016-Jul-22 13:33N 51°28' E 000°21'0 0.0
2016-Jul-22 12:33N 51°28' E 000°21'0 0.0
2016-Jul-22 11:33N 51°28' E 000°21'0 0.0
2016-Jul-22 10:33N 51°28' E 000°21'0 0.0
2016-Jul-22 09:33N 51°28' E 000°21'0 0.0
2016-Jul-22 08:33N 51°28' E 000°21'0 0.0
2016-Jul-22 07:34N 51°28' E 000°21'0 0.0
2016-Jul-22 05:33N 51°28' E 000°21'0 0.0
2016-Jul-22 04:33N 51°28' E 000°21'0 0.0
2016-Jul-22 03:34N 51°28' E 000°21'0 0.0
2016-Jul-22 02:33N 51°28' E 000°21'1 0.7
2016-Jul-22 01:33N 51°27' E 000°20'2 1.8
2016-Jul-22 00:34N 51°27' E 000°23'9 9.3
2016-Jul-21 23:33N 51°30' E 000°37'1110.5
2016-Jul-21 22:33N 51°29' E 000°54'10 9.8
2016-Jul-21 21:33N 51°29' E 001°09'1010.3
2016-Jul-21 20:33N 51°28' E 001°26'3 2.7
2016-Jul-21 19:33N 51°25' E 001°26'1 1.1
2016-Jul-21 18:33N 51°25' E 001°24'0 0.0
2016-Jul-21 17:33N 51°25' E 001°24'0 0.0
2016-Jul-21 16:33N 51°25' E 001°24'0 0.0
2016-Jul-21 15:33N 51°25' E 001°24'0 0.0
2016-Jul-21 14:33N 51°25' E 001°24'0 0.1
2016-Jul-21 13:33N 51°25' E 001°24'0 0.0
2016-Jul-21 12:33N 51°25' E 001°24'0 0.0
2016-Jul-21 11:34N 51°25' E 001°24'0 0.0
2016-Jul-21 10:33N 51°25' E 001°24'0 0.0
2016-Jul-21 09:33N 51°25' E 001°24'1 0.8
2016-Jul-21 08:33N 51°25' E 001°26'10 9.8
2016-Jul-21 07:33N 51°32' E 001°37'9 9.3
2016-Jul-21 06:33N 51°40' E 001°44'9 9.1
2016-Jul-21 05:33N 51°49' E 001°43'8 7.7
2016-Jul-21 04:33N 51°57' E 001°44'7 7.0
2016-Jul-21 03:33N 52°04' E 001°45'7 6.7
2016-Jul-21 02:33N 52°10' E 001°49'21 0.5
2016-Jul-19 08:19N 52°31' E 001°51'5 6.1
2016-Jul-19 07:27N 52°27' E 001°56'15 5.1
2016-Jul-19 04:32N 52°17' E 002°14'5 5.3
2016-Jul-19 03:33N 52°13' E 002°19'9 9.3
2016-Jul-19 02:32N 52°06' E 002°30'11 9.5
2016-Jul-19 01:21N 51°59' E 002°45'7 8.9
2016-Jul-19 00:33N 51°53' E 002°51'9 8.6
2016-Jul-18 23:32N 51°49' E 003°03'9 8.6
2016-Jul-18 22:33N 51°44' E 003°15'9 9.0
2016-Jul-18 21:33N 51°37' E 003°22'10 9.4
2016-Jul-18 20:32N 51°29' E 003°30'9 8.9
2016-Jul-18 19:33N 51°24' E 003°42'10 9.6
2016-Jul-18 18:33N 51°24' E 003°57'9 8.6
2016-Jul-18 17:34N 51°24' E 004°11'  

Dump ship's entire track history